createdAt,value
2022-08-29T00:00:44.777Z,100933.16
2022-08-29T00:04:27.957Z,100935.08
2022-08-29T00:08:17.609Z,100944.91
2022-08-29T00:11:58.071Z,100947.73
2022-08-29T00:14:59.538Z,100945.70
2022-08-29T00:18:47.577Z,100942.22
2022-08-29T00:22:18.683Z,100946.81
2022-08-29T00:25:48.135Z,100946.77
2022-08-29T00:29:15.685Z,100945.19
2022-08-29T00:32:39.914Z,100947.59
2022-08-29T00:36:16.678Z,100952.27
2022-08-29T00:40:05.367Z,100955.67
2022-08-29T00:43:49.701Z,100955.58
2022-08-29T00:47:37.428Z,100957.59
2022-08-29T00:51:28.150Z,100957.52
2022-08-29T00:55:16.139Z,100956.44
2022-08-29T00:59:02.447Z,100958.43
2022-08-29T01:02:30.359Z,100963.41
2022-08-29T01:05:59.167Z,100966.92
2022-08-29T01:09:47.207Z,100966.13
2022-08-29T01:13:34.777Z,100969.30
2022-08-29T01:17:22.615Z,100973.48
2022-08-29T01:21:05.039Z,100975.34
2022-08-29T01:24:47.770Z,100976.23
2022-08-29T01:28:35.392Z,100990.13
2022-08-29T01:32:15.248Z,100983.27
2022-08-29T01:36:03.033Z,100984.19
2022-08-29T01:39:49.882Z,100988.02
2022-08-29T01:43:30.720Z,100989.95
2022-08-29T01:47:18.334Z,100990.86
2022-08-29T01:50:34.368Z,100987.83
2022-08-29T01:54:22.187Z,100987.67
2022-08-29T01:58:03.798Z,100990.91
2022-08-29T02:01:50.503Z,100986.88
2022-08-29T02:05:37.136Z,100988.08
2022-08-29T02:09:14.788Z,100987.70
2022-08-29T02:13:00.869Z,100990.75
2022-08-29T02:16:49.105Z,100988.13
2022-08-29T02:20:36.122Z,100986.77
2022-08-29T02:24:21.268Z,100992.83
2022-08-29T02:27:36.881Z,100990.08
2022-08-29T02:31:15.889Z,100983.86
2022-08-29T02:34:47.772Z,100984.58
2022-08-29T02:38:16.351Z,100986.66
2022-08-29T02:42:04.288Z,100989.63
2022-08-29T02:45:14.928Z,100989.59
2022-08-29T02:49:02.523Z,100988.02
2022-08-29T02:52:49.159Z,100987.34
2022-08-29T02:56:30.050Z,100987.48
2022-08-29T02:59:43.171Z,100996.05
2022-08-29T03:03:12.125Z,100993.59
2022-08-29T03:06:31.384Z,100999.27
2022-08-29T03:09:49.202Z,100994.88
2022-08-29T03:13:36.702Z,101002.45
2022-08-29T03:17:24.403Z,101000.61
2022-08-29T03:21:12.591Z,101001.39
2022-08-29T03:25:00.524Z,101003.27
2022-08-29T03:28:48.312Z,101005.49
2022-08-29T03:32:36.522Z,101001.17
2022-08-29T03:36:03.753Z,101005.80
2022-08-29T03:39:56.022Z,101009.35
2022-08-29T03:43:15.523Z,101011.02
2022-08-29T03:47:03.341Z,101013.89
2022-08-29T03:50:55.800Z,101012.73
2022-08-29T03:54:44.414Z,101015.81
2022-08-29T03:58:31.590Z,101016.74
2022-08-29T04:01:59.311Z,101021.15
2022-08-29T04:05:27.835Z,101019.20
2022-08-29T04:08:45.679Z,101018.85
2022-08-29T04:12:34.524Z,101022.80
2022-08-29T04:16:23.451Z,101028.69
2022-08-29T04:20:11.450Z,101027.85
2022-08-29T04:23:39.513Z,101028.46
2022-08-29T04:27:15.801Z,101026.32
2022-08-29T04:31:06.001Z,101029.20
2022-08-29T04:34:33.483Z,101037.54
2022-08-29T04:38:21.794Z,101040.02
2022-08-29T04:42:09.552Z,101043.20
2022-08-29T04:45:57.423Z,101043.19
2022-08-29T04:49:45.905Z,101043.11
2022-08-29T04:53:04.711Z,101049.30
2022-08-29T04:56:31.823Z,101047.73
2022-08-29T05:00:00.034Z,101048.73
2022-08-29T05:03:48.655Z,101053.64
2022-08-29T05:07:16.210Z,101047.29
2022-08-29T05:10:44.861Z,101049.25
2022-08-29T05:14:35.225Z,101048.45
2022-08-29T05:18:02.759Z,101054.77
2022-08-29T05:21:50.345Z,101055.38
2022-08-29T05:25:18.062Z,101056.27
2022-08-29T05:28:57.532Z,101059.80
2022-08-29T05:32:45.223Z,101064.10
2022-08-29T05:36:25.438Z,101069.96
2022-08-29T05:39:42.857Z,101074.08
2022-08-29T05:42:53.597Z,101072.04
2022-08-29T05:46:33.797Z,101073.28
2022-08-29T05:50:21.592Z,101072.41
2022-08-29T05:53:59.827Z,101077.20
2022-08-29T05:57:47.394Z,101079.96
2022-08-29T06:01:28.647Z,101076.93
2022-08-29T06:04:42.971Z,101078.05
2022-08-29T06:08:11.919Z,101076.30
2022-08-29T06:11:32.775Z,101083.52
2022-08-29T06:15:13.149Z,101092.15
2022-08-29T06:18:31.562Z,101090.23
2022-08-29T06:21:46.034Z,101090.40
2022-08-29T06:25:39.666Z,101091.13
2022-08-29T06:29:27.849Z,101090.55
2022-08-29T06:32:58.471Z,101089.73
2022-08-29T06:36:46.339Z,101091.23
2022-08-29T06:40:33.069Z,101097.48
2022-08-29T06:44:20.693Z,101093.63
2022-08-29T06:47:55.968Z,101098.15
2022-08-29T06:51:44.241Z,101106.30
2022-08-29T06:55:24.443Z,101116.90
2022-08-29T06:59:12.270Z,101115.88
2022-08-29T07:02:40.020Z,101119.27
2022-08-29T07:06:22.466Z,101122.52
2022-08-29T07:09:48.096Z,101126.51
2022-08-29T07:13:14.348Z,101129.28
2022-08-29T07:17:02.288Z,101131.46
2022-08-29T07:20:50.169Z,101132.79
2022-08-29T07:24:18.657Z,101135.41
2022-08-29T07:27:58.020Z,101142.02
2022-08-29T07:31:45.943Z,101145.26
2022-08-29T07:35:33.880Z,101144.35
2022-08-29T07:39:21.418Z,101142.10
2022-08-29T07:43:01.602Z,101137.70
2022-08-29T07:46:49.254Z,101138.80
2022-08-29T07:50:37.333Z,101138.98
2022-08-29T07:54:25.135Z,101136.95
2022-08-29T07:58:02.847Z,101144.05
2022-08-29T08:01:51.705Z,101142.70
2022-08-29T08:06:03.914Z,101143.98
2022-08-29T08:09:49.776Z,101141.23
2022-08-29T08:13:38.017Z,101143.20
2022-08-29T08:17:26.212Z,101142.33
2022-08-29T08:20:58.068Z,101141.64
2022-08-29T08:24:51.740Z,101138.23
2022-08-29T08:28:22.923Z,101138.65
2022-08-29T08:32:05.249Z,101139.11
2022-08-29T08:35:53.586Z,101146.55
2022-08-29T08:39:41.962Z,101142.27
2022-08-29T08:43:38.493Z,101141.05
2022-08-29T08:47:29.330Z,101141.85
2022-08-29T08:51:19.677Z,101138.48
2022-08-29T08:55:07.507Z,101134.87
2022-08-29T08:58:53.638Z,101135.20
2022-08-29T09:02:47.113Z,101131.19
2022-08-29T09:06:49.480Z,101129.71
2022-08-29T09:10:42.985Z,101128.90
2022-08-29T09:14:42.798Z,101128.59
2022-08-29T09:18:38.190Z,101134.39
2022-08-29T09:22:26.206Z,101131.07
2022-08-29T09:26:15.048Z,101134.01
2022-08-29T09:30:05.629Z,101136.84
2022-08-29T09:33:53.453Z,101139.79
2022-08-29T09:37:59.544Z,101138.04
2022-08-29T09:41:47.641Z,101139.59
2022-08-29T09:45:35.259Z,101136.50
2022-08-29T09:49:23.167Z,101140.52
2022-08-29T09:53:24.372Z,101134.23
2022-08-29T09:57:16.114Z,101133.39
2022-08-29T10:01:15.711Z,101135.70
2022-08-29T10:05:15.841Z,101137.59
2022-08-29T10:08:59.932Z,101134.06
2022-08-29T10:12:50.658Z,101135.19
2022-08-29T10:16:53.336Z,101136.48
2022-08-29T10:20:41.102Z,101130.20
2022-08-29T10:29:05.705Z,101143.95
2022-08-29T10:32:55.178Z,101135.48
2022-08-29T10:36:57.957Z,101134.72
2022-08-29T10:41:03.464Z,101130.30
2022-08-29T10:44:47.830Z,101135.44
2022-08-29T10:48:44.264Z,101134.15
2022-08-29T10:52:37.715Z,101142.86
2022-08-29T10:56:29.582Z,101139.47
2022-08-29T11:00:19.784Z,101147.61
2022-08-29T11:04:05.798Z,101143.80
2022-08-29T11:07:56.575Z,101143.83
2022-08-29T11:11:44.208Z,101144.73
2022-08-29T11:15:42.475Z,101143.95
2022-08-29T11:19:34.726Z,101143.64
2022-08-29T11:23:07.268Z,101138.05
2022-08-29T11:26:35.637Z,101140.80
2022-08-29T11:30:39.322Z,101142.04
2022-08-29T11:34:38.638Z,101135.20
2022-08-29T11:38:28.985Z,101140.94
2022-08-29T11:46:16.826Z,101146.10
2022-08-29T11:50:19.655Z,101145.05
2022-08-29T11:54:10.648Z,101141.63
2022-08-29T11:58:11.851Z,101145.99
2022-08-29T12:02:05.845Z,101142.77
2022-08-29T12:05:56.431Z,101143.00
2022-08-29T12:09:58.965Z,101143.20
2022-08-29T12:13:46.629Z,101139.55
2022-08-29T12:18:00.494Z,101136.44
2022-08-29T12:21:45.622Z,101130.64
2022-08-29T12:25:37.281Z,101132.71
2022-08-29T12:29:41.250Z,101136.08
2022-08-29T12:33:47.922Z,101134.91
2022-08-29T12:37:40.773Z,101134.09
2022-08-29T12:41:46.320Z,101132.17
2022-08-29T12:45:18.780Z,101133.98
2022-08-29T12:48:57.636Z,101136.25
2022-08-29T12:52:39.125Z,101138.34
2022-08-29T12:56:05.967Z,101133.23
2022-08-29T12:59:56.716Z,101130.38
2022-08-29T13:03:27.912Z,101131.34
2022-08-29T13:06:40.345Z,101127.11
2022-08-29T13:10:32.071Z,101128.73
2022-08-29T13:14:19.951Z,101126.55
2022-08-29T13:18:06.957Z,101121.69
2022-08-29T13:22:12.984Z,101117.81
2022-08-29T13:26:10.225Z,101118.66
2022-08-29T13:30:03.698Z,101120.00
2022-08-29T13:33:50.223Z,101121.21
2022-08-29T13:37:37.857Z,101113.82
2022-08-29T13:41:32.204Z,101119.44
2022-08-29T13:45:28.765Z,101113.14
2022-08-29T13:49:16.099Z,101115.92
2022-08-29T13:52:59.903Z,101114.23
2022-08-29T13:56:47.795Z,101110.08
2022-08-29T14:00:32.458Z,101110.57
2022-08-29T14:04:36.927Z,101113.36
2022-08-29T14:08:22.758Z,101113.83
2022-08-29T14:11:54.159Z,101122.42
2022-08-29T14:15:26.577Z,101121.80
2022-08-29T14:19:15.243Z,101124.13
2022-08-29T14:23:06.982Z,101122.71
2022-08-29T14:27:01.461Z,101125.14
2022-08-29T14:30:52.290Z,101126.23
2022-08-29T14:34:41.122Z,101124.22
2022-08-29T14:38:39.128Z,101118.69
2022-08-29T14:42:27.017Z,101118.23
2022-08-29T14:46:15.128Z,101113.73
2022-08-29T14:49:33.892Z,101114.50
2022-08-29T14:53:21.497Z,101109.16
2022-08-29T14:57:09.044Z,101110.28
2022-08-29T15:00:56.902Z,101113.30
2022-08-29T15:04:44.626Z,101111.06
2022-08-29T15:08:25.061Z,101110.14
2022-08-29T15:12:13.698Z,101109.55
2022-08-29T15:16:01.918Z,101115.22
2022-08-29T15:23:58.173Z,101107.80
2022-08-29T15:27:15.935Z,101108.38
2022-08-29T15:31:01.507Z,101106.23
2022-08-29T15:34:30.410Z,101098.83
2022-08-29T15:37:59.729Z,101101.41
2022-08-29T15:41:47.223Z,101104.01
2022-08-29T15:45:25.180Z,101105.60
2022-08-29T15:49:12.930Z,101108.58
2022-08-29T15:52:55.855Z,101107.02
2022-08-29T15:56:35.806Z,101105.41
2022-08-29T16:00:05.925Z,101096.77
2022-08-29T16:03:26.642Z,101090.58
2022-08-29T16:07:14.573Z,101092.13
2022-08-29T16:11:02.309Z,101097.02
2022-08-29T16:15:09.440Z,101097.95
2022-08-29T16:18:57.892Z,101107.51
2022-08-29T16:22:45.919Z,101103.08
2022-08-29T16:26:21.493Z,101104.79
2022-08-29T16:29:49.955Z,101105.23
2022-08-29T16:33:29.288Z,101100.09
2022-08-29T16:36:59.216Z,101102.98
2022-08-29T16:40:26.923Z,101107.47
2022-08-29T16:44:04.955Z,101108.71
2022-08-29T16:47:52.146Z,101104.05
2022-08-29T16:51:28.943Z,101104.62
2022-08-29T16:54:56.388Z,101097.53
2022-08-29T16:59:19.445Z,101109.33
2022-08-29T17:03:07.377Z,101110.83
2022-08-29T17:06:57.381Z,101113.21
2022-08-29T17:10:25.276Z,101118.18
2022-08-29T17:13:52.807Z,101123.99
2022-08-29T17:17:42.186Z,101123.66
2022-08-29T17:21:30.398Z,101125.04
2022-08-29T17:25:18.210Z,101127.37
2022-08-29T17:29:06.038Z,101130.89
2022-08-29T17:32:48.638Z,101132.10
2022-08-29T17:36:36.628Z,101131.64
2022-08-29T17:40:24.695Z,101135.34
2022-08-29T17:44:13.741Z,101134.39
2022-08-29T17:48:02.096Z,101134.24
2022-08-29T17:51:53.721Z,101131.20
2022-08-29T17:55:45.271Z,101133.72
2022-08-29T17:59:33.768Z,101138.85
2022-08-29T18:03:21.314Z,101134.02
2022-08-29T18:07:09.306Z,101134.23
2022-08-29T18:10:57.730Z,101137.19
2022-08-29T18:14:47.935Z,101142.85
2022-08-29T18:18:36.274Z,101137.33
2022-08-29T18:22:24.379Z,101152.27
2022-08-29T18:26:12.477Z,101156.23
2022-08-29T18:30:00.176Z,101159.82
2022-08-29T18:34:04.149Z,101167.12
2022-08-29T18:37:55.295Z,101173.10
2022-08-29T18:41:43.346Z,101169.92
2022-08-29T18:45:31.213Z,101171.38
2022-08-29T18:49:19.523Z,101167.15
2022-08-29T18:53:07.876Z,101168.77
2022-08-29T18:56:56.406Z,101169.29
2022-08-29T19:00:44.979Z,101172.97
2022-08-29T19:04:33.134Z,101175.05
2022-08-29T19:08:21.980Z,101174.43
2022-08-29T19:12:10.461Z,101174.95
2022-08-29T19:16:00.557Z,101175.52
2022-08-29T19:19:48.862Z,101176.29
2022-08-29T19:23:44.097Z,101178.98
2022-08-29T19:27:43.137Z,101182.70
2022-08-29T19:31:32.666Z,101185.06
2022-08-29T19:35:21.428Z,101188.43
2022-08-29T19:39:09.996Z,101192.70
2022-08-29T19:42:59.005Z,101193.82
2022-08-29T19:46:51.095Z,101195.27
2022-08-29T19:50:41.773Z,101191.71
2022-08-29T19:54:29.791Z,101191.03
2022-08-29T19:58:17.618Z,101186.48
2022-08-29T20:02:06.185Z,101186.37
2022-08-29T20:05:54.782Z,101183.41
2022-08-29T20:09:43.405Z,101179.65
2022-08-29T20:13:34.811Z,101183.81
2022-08-29T20:17:24.284Z,101182.84
2022-08-29T20:21:19.296Z,101180.06
2022-08-29T20:25:07.948Z,101181.16
2022-08-29T20:28:56.846Z,101192.16
2022-08-29T20:32:47.773Z,101190.77
2022-08-29T20:36:38.570Z,101190.28
2022-08-29T20:40:29.370Z,101192.52
2022-08-29T20:44:18.516Z,101195.69
2022-08-29T20:48:06.398Z,101203.65
2022-08-29T20:51:57.160Z,101202.78
2022-08-29T20:55:44.977Z,101203.74
2022-08-29T20:59:34.483Z,101204.23
2022-08-29T21:03:20.915Z,101204.50
2022-08-29T21:07:09.004Z,101201.96
2022-08-29T21:10:57.081Z,101202.70
2022-08-29T21:14:45.515Z,101206.63
2022-08-29T21:18:33.544Z,101208.66
2022-08-29T21:22:24.799Z,101208.23
2022-08-29T21:26:15.615Z,101212.75
2022-08-29T21:30:03.394Z,101214.42
2022-08-29T21:33:54.660Z,101218.98
2022-08-29T21:37:42.475Z,101226.32
2022-08-29T21:41:30.478Z,101229.88
2022-08-29T21:45:18.805Z,101230.69
2022-08-29T21:49:06.728Z,101229.73
2022-08-29T21:52:54.834Z,101235.80
2022-08-29T21:56:42.559Z,101238.17
2022-08-29T22:00:30.055Z,101243.13
2022-08-29T22:04:19.209Z,101246.40
2022-08-29T22:08:17.366Z,101253.40
2022-08-29T22:12:13.934Z,101255.37
2022-08-29T22:16:00.155Z,101259.08
2022-08-29T22:19:48.029Z,101260.40
2022-08-29T22:23:35.654Z,101265.39
2022-08-29T22:27:23.341Z,101264.43
2022-08-29T22:31:11.769Z,101259.27
2022-08-29T22:34:59.338Z,101262.16
2022-08-29T22:38:47.239Z,101258.94
2022-08-29T22:42:37.353Z,101259.18
2022-08-29T22:46:25.515Z,101259.92
2022-08-29T22:50:13.495Z,101267.34
2022-08-29T22:54:01.333Z,101273.00
2022-08-29T22:57:48.981Z,101275.95
2022-08-29T23:01:36.993Z,101276.67
2022-08-29T23:05:24.738Z,101283.37
2022-08-29T23:09:12.815Z,101284.26
2022-08-29T23:13:00.758Z,101286.33
2022-08-29T23:16:48.468Z,101285.90
2022-08-29T23:20:36.672Z,101284.45
2022-08-29T23:24:24.790Z,101280.14
2022-08-29T23:28:12.605Z,101283.39
2022-08-29T23:32:01.235Z,101280.16
2022-08-29T23:35:49.429Z,101279.46
2022-08-29T23:39:37.051Z,101279.06
2022-08-29T23:43:24.959Z,101278.29
2022-08-29T23:47:13.087Z,101278.60
2022-08-29T23:51:00.708Z,101276.20
2022-08-29T23:54:48.469Z,101279.20
2022-08-29T23:58:36.138Z,101274.75
